No particular awareness of the weather is required.    There are no Weather-warnings


Meteo18 Weather Cam more information Meteo18 Weather Cam


Thunder radar more information blitzortung!


Rain radar more information rain snow radar


Visit our other weather sites:

Template documentation
and downloads

And another site



Weather Underground History page Text

Daily Summary for January 8, 2017 Units:  Both    English   Metric
« Previous Day
Next Day »
Daily Weekly Monthly Yearly Custom
  High: Low: Average:
Temperature: 39.9 °F /  4.4 °C 31.6 °F /  -0.2 °C 34.3 °F /  1.3 °C
Dew Point: 38.7 °F /  3.7 °C 30.4 °F /  -0.9 °C 33.6 °F /  0.9 °C
Humidity: 98 % 95 % 97 %
Wind Speed: 3 mph /  4.8 km/h - 0.1 mph /  0.2 km/h
Wind Gust: 5 mph /  8.0 km/h - -
Wind:- - SW
Pressure: 30.5 in /  1034.1 hPa 30.5 in /  1032.1 hPa -
Precipitation: 0.02 in /  0.5 mm    
Historical Graphs
 
 
Tabular Data for January 8, 2017
Time Temperature Dew Point Pressure Wind Wind Speed Wind Gust Humidity Rainfall Rate (Hourly)
00:02 31.6 °F /  -0.2 °C 30.4 °F /  -0.9 °C 30.5 in /  1034.1 hPa West 1 mph /  1.6 km/h 3 mph /  4.8 km/h 95 % 0 in /  0.0 mm
00:12 31.6 °F /  -0.2 °C 30.4 °F /  -0.9 °C 30.5 in /  1033.7 hPa WSW 1 mph /  1.6 km/h 4 mph /  6.4 km/h 95 % 0 in /  0.0 mm
00:17 31.6 °F /  -0.2 °C 30.4 °F /  -0.9 °C 30.5 in /  1033.7 hPa SW 1 mph /  1.6 km/h 3 mph /  4.8 km/h 95 % 0 in /  0.0 mm
00:22 31.6 °F /  -0.2 °C 30.4 °F /  -0.9 °C 30.5 in /  1033.7 hPa WSW 1 mph /  1.6 km/h 3 mph /  4.8 km/h 95 % 0 in /  0.0 mm
00:27 31.6 °F /  -0.2 °C 30.4 °F /  -0.9 °C 30.5 in /  1033.7 hPa SW 1 mph /  1.6 km/h 3 mph /  4.8 km/h 95 % 0 in /  0.0 mm
00:37 31.6 °F /  -0.2 °C 30.4 °F /  -0.9 °C 30.5 in /  1033.7 hPa SSW 1 mph /  1.6 km/h 3 mph /  4.8 km/h 95 % 0 in /  0.0 mm
00:42 31.8 °F /  -0.1 °C 30.6 °F /  -0.8 °C 30.5 in /  1033.7 hPa Calm   3 mph /  4.8 km/h 95 % 0 in /  0.0 mm
00:47 31.6 °F /  -0.2 °C 30.4 °F /  -0.9 °C 30.5 in /  1033.7 hPa SSW 1 mph /  1.6 km/h 3 mph /  4.8 km/h 95 % 0 in /  0.0 mm
00:52 31.6 °F /  -0.2 °C 30.4 °F /  -0.9 °C 30.5 in /  1033.7 hPa Calm   2 mph /  3.2 km/h 95 % 0 in /  0.0 mm
00:57 31.6 °F /  -0.2 °C 30.4 °F /  -0.9 °C 30.5 in /  1033.7 hPa Calm   2 mph /  3.2 km/h 95 % 0 in /  0.0 mm
01:02 31.6 °F /  -0.2 °C 30.6 °F /  -0.8 °C 30.5 in /  1033.4 hPa Calm   2 mph /  3.2 km/h 96 % 0 in /  0.0 mm
01:07 31.6 °F /  -0.2 °C 30.6 °F /  -0.8 °C 30.5 in /  1033.7 hPa Calm     96 % 0 in /  0.0 mm
01:12 31.6 °F /  -0.2 °C 30.6 °F /  -0.8 °C 30.5 in /  1033.4 hPa Calm     96 % 0 in /  0.0 mm
01:17 31.6 °F /  -0.2 °C 30.6 °F /  -0.8 °C 30.5 in /  1033.4 hPa Calm     96 % 0 in /  0.0 mm
01:22 31.6 °F /  -0.2 °C 30.6 °F /  -0.8 °C 30.5 in /  1033.4 hPa Calm     96 % 0 in /  0.0 mm
01:27 31.6 °F /  -0.2 °C 30.6 °F /  -0.8 °C 30.5 in /  1033.4 hPa Calm     96 % 0 in /  0.0 mm
01:32 31.6 °F /  -0.2 °C 30.6 °F /  -0.8 °C 30.5 in /  1033.1 hPa Calm     96 % 0 in /  0.0 mm
01:37 31.6 °F /  -0.2 °C 30.6 °F /  -0.8 °C 30.5 in /  1033.4 hPa Calm     96 % 0 in /  0.0 mm
01:42 31.6 °F /  -0.2 °C 30.6 °F /  -0.8 °C 30.5 in /  1033.1 hPa Calm     96 % 0 in /  0.0 mm
01:47 31.6 °F /  -0.2 °C 30.6 °F /  -0.8 °C 30.5 in /  1033.1 hPa Calm     96 % 0 in /  0.0 mm
01:52 31.6 °F /  -0.2 °C 30.6 °F /  -0.8 °C 30.5 in /  1033.1 hPa Calm     96 % 0 in /  0.0 mm
01:57 31.6 °F /  -0.2 °C 30.6 °F /  -0.8 °C 30.5 in /  1033.1 hPa Calm     96 % 0 in /  0.0 mm
02:02 31.6 °F /  -0.2 °C 30.6 °F /  -0.8 °C 30.5 in /  1033.1 hPa Calm     96 % 0 in /  0.0 mm
02:07 31.6 °F /  -0.2 °C 30.6 °F /  -0.8 °C 30.5 in /  1033.1 hPa Calm     96 % 0 in /  0.0 mm
02:12 31.8 °F /  -0.1 °C 30.7 °F /  -0.7 °C 30.5 in /  1033.1 hPa Calm     96 % 0 in /  0.0 mm
02:17 31.8 °F /  -0.1 °C 30.7 °F /  -0.7 °C 30.5 in /  1033.1 hPa Calm     96 % 0 in /  0.0 mm
02:22 31.8 °F /  -0.1 °C 31.1 °F /  -0.5 °C 30.5 in /  1033.1 hPa Calm     97 % 0 in /  0.0 mm
02:27 32 °F /  0.0 °C 31.3 °F /  -0.4 °C 30.5 in /  1033.1 hPa Calm     97 % 0 in /  0.0 mm
02:32 32.2 °F /  0.1 °C 31.5 °F /  -0.3 °C 30.5 in /  1032.7 hPa Calm     97 % 0 in /  0.0 mm
02:37 32.2 °F /  0.1 °C 31.5 °F /  -0.3 °C 30.5 in /  1032.7 hPa Calm     97 % 0 in /  0.0 mm
02:42 32.2 °F /  0.1 °C 31.5 °F /  -0.3 °C 30.5 in /  1032.7 hPa Calm     97 % 0 in /  0.0 mm
02:47 32.2 °F /  0.1 °C 31.5 °F /  -0.3 °C 30.5 in /  1032.7 hPa Calm     97 % 0 in /  0.0 mm
02:52 32.2 °F /  0.1 °C 31.5 °F /  -0.3 °C 30.5 in /  1032.7 hPa Calm     97 % 0 in /  0.0 mm
02:57 32.4 °F /  0.2 °C 31.6 °F /  -0.2 °C 30.5 in /  1033.1 hPa Calm     97 % 0 in /  0.0 mm
03:02 32.4 °F /  0.2 °C 31.6 °F /  -0.2 °C 30.5 in /  1033.1 hPa Calm     97 % 0 in /  0.0 mm
03:07 32.4 °F /  0.2 °C 31.6 °F /  -0.2 °C 30.5 in /  1033.1 hPa Calm     97 % 0 in /  0.0 mm
03:12 32.4 °F /  0.2 °C 31.6 °F /  -0.2 °C 30.5 in /  1032.7 hPa Calm     97 % 0 in /  0.0 mm
03:17 32.4 °F /  0.2 °C 31.6 °F /  -0.2 °C 30.5 in /  1032.7 hPa Calm     97 % 0 in /  0.0 mm
03:22 32.4 °F /  0.2 °C 31.6 °F /  -0.2 °C 30.5 in /  1032.7 hPa Calm     97 % 0 in /  0.0 mm
03:32 32.4 °F /  0.2 °C 31.6 °F /  -0.2 °C 30.5 in /  1032.7 hPa Calm     97 % 0 in /  0.0 mm
03:42 32.2 °F /  0.1 °C 31.5 °F /  -0.3 °C 30.5 in /  1032.7 hPa Calm     97 % 0 in /  0.0 mm
03:47 32.2 °F /  0.1 °C 31.5 °F /  -0.3 °C 30.5 in /  1032.7 hPa Calm     97 % 0 in /  0.0 mm
03:52 32.4 °F /  0.2 °C 31.6 °F /  -0.2 °C 30.5 in /  1032.7 hPa Calm     97 % 0 in /  0.0 mm
03:57 32.4 °F /  0.2 °C 31.6 °F /  -0.2 °C 30.5 in /  1032.7 hPa Calm     97 % 0 in /  0.0 mm
04:02 32.4 °F /  0.2 °C 31.6 °F /  -0.2 °C 30.5 in /  1032.7 hPa Calm     97 % 0 in /  0.0 mm
04:07 32.2 °F /  0.1 °C 31.5 °F /  -0.3 °C 30.5 in /  1032.7 hPa Calm     97 % 0 in /  0.0 mm
04:12 32.4 °F /  0.2 °C 31.6 °F /  -0.2 °C 30.5 in /  1032.7 hPa Calm     97 % 0 in /  0.0 mm
04:17 32.4 °F /  0.2 °C 31.6 °F /  -0.2 °C 30.5 in /  1033.1 hPa Calm     97 % 0 in /  0.0 mm
04:22 32.2 °F /  0.1 °C 31.5 °F /  -0.3 °C 30.5 in /  1033.1 hPa Calm     97 % 0 in /  0.0 mm
04:27 32.2 °F /  0.1 °C 31.5 °F /  -0.3 °C 30.5 in /  1032.7 hPa Calm     97 % 0 in /  0.0 mm
04:32 32.2 °F /  0.1 °C 31.5 °F /  -0.3 °C 30.5 in /  1033.1 hPa Calm     97 % 0 in /  0.0 mm
04:37 32.2 °F /  0.1 °C 31.5 °F /  -0.3 °C 30.5 in /  1033.1 hPa Calm     97 % 0 in /  0.0 mm
04:42 32.2 °F /  0.1 °C 31.5 °F /  -0.3 °C 30.5 in /  1033.1 hPa Calm     97 % 0 in /  0.0 mm
04:47 32 °F /  0.0 °C 31.3 °F /  -0.4 °C 30.5 in /  1032.7 hPa Calm     97 % 0 in /  0.0 mm
04:52 32 °F /  0.0 °C 31.3 °F /  -0.4 °C 30.5 in /  1032.7 hPa Calm     97 % 0 in /  0.0 mm
04:57 32 °F /  0.0 °C 31.3 °F /  -0.4 °C 30.5 in /  1032.7 hPa Calm     97 % 0 in /  0.0 mm
05:02 32 °F /  0.0 °C 31.3 °F /  -0.4 °C 30.5 in /  1032.7 hPa Calm     97 % 0 in /  0.0 mm
05:12 32 °F /  0.0 °C 31.3 °F /  -0.4 °C 30.5 in /  1032.7 hPa Calm     97 % 0 in /  0.0 mm
05:17 32 °F /  0.0 °C 31.3 °F /  -0.4 °C 30.5 in /  1032.7 hPa Calm     97 % 0 in /  0.0 mm
05:22 32 °F /  0.0 °C 31.3 °F /  -0.4 °C 30.5 in /  1032.7 hPa Calm     97 % 0 in /  0.0 mm
05:27 32 °F /  0.0 °C 31.3 °F /  -0.4 °C 30.5 in /  1032.7 hPa Calm     97 % 0 in /  0.0 mm
05:32 32 °F /  0.0 °C 31.3 °F /  -0.4 °C 30.5 in /  1032.7 hPa Calm     97 % 0 in /  0.0 mm
05:37 32 °F /  0.0 °C 31.3 °F /  -0.4 °C 30.5 in /  1032.7 hPa Calm     97 % 0 in /  0.0 mm
05:42 32.2 °F /  0.1 °C 31.5 °F /  -0.3 °C 30.5 in /  1032.7 hPa Calm     97 % 0 in /  0.0 mm
05:47 32 °F /  0.0 °C 31.3 °F /  -0.4 °C 30.5 in /  1032.7 hPa Calm     97 % 0 in /  0.0 mm
05:52 32.2 °F /  0.1 °C 31.5 °F /  -0.3 °C 30.5 in /  1032.7 hPa Calm     97 % 0 in /  0.0 mm
05:57 32.2 °F /  0.1 °C 31.5 °F /  -0.3 °C 30.5 in /  1032.7 hPa Calm     97 % 0 in /  0.0 mm
06:02 32.2 °F /  0.1 °C 31.5 °F /  -0.3 °C 30.5 in /  1032.7 hPa Calm     97 % 0 in /  0.0 mm
06:07 32.2 °F /  0.1 °C 31.5 °F /  -0.3 °C 30.5 in /  1032.7 hPa Calm     97 % 0 in /  0.0 mm
06:12 32.2 °F /  0.1 °C 31.5 °F /  -0.3 °C 30.5 in /  1032.4 hPa Calm     97 % 0 in /  0.0 mm
06:17 32.2 °F /  0.1 °C 31.5 °F /  -0.3 °C 30.5 in /  1032.4 hPa Calm     97 % 0 in /  0.0 mm
06:22 32.4 °F /  0.2 °C 31.6 °F /  -0.2 °C 30.5 in /  1032.4 hPa Calm     97 % 0 in /  0.0 mm
06:27 32.5 °F /  0.3 °C 31.8 °F /  -0.1 °C 30.5 in /  1032.4 hPa Calm     97 % 0 in /  0.0 mm
06:32 32.5 °F /  0.3 °C 31.8 °F /  -0.1 °C 30.5 in /  1032.4 hPa Calm     97 % 0 in /  0.0 mm
06:37 32.5 °F /  0.3 °C 31.8 °F /  -0.1 °C 30.5 in /  1032.4 hPa Calm     97 % 0 in /  0.0 mm
06:42 32.5 °F /  0.3 °C 31.8 °F /  -0.1 °C 30.5 in /  1032.4 hPa Calm     97 % 0 in /  0.0 mm
06:47 32.5 °F /  0.3 °C 31.8 °F /  -0.1 °C 30.5 in /  1032.4 hPa Calm     97 % 0 in /  0.0 mm
06:52 32.5 °F /  0.3 °C 31.8 °F /  -0.1 °C 30.5 in /  1032.4 hPa Calm     97 % 0 in /  0.0 mm
06:57 32.5 °F /  0.3 °C 31.8 °F /  -0.1 °C 30.5 in /  1032.4 hPa Calm     97 % 0 in /  0.0 mm
07:02 32.5 °F /  0.3 °C 31.8 °F /  -0.1 °C 30.5 in /  1032.4 hPa Calm     97 % 0 in /  0.0 mm
07:07 32.5 °F /  0.3 °C 31.8 °F /  -0.1 °C 30.5 in /  1032.4 hPa Calm     97 % 0 in /  0.0 mm
07:12 32.5 °F /  0.3 °C 31.8 °F /  -0.1 °C 30.5 in /  1032.1 hPa Calm     97 % 0 in /  0.0 mm
07:17 32.7 °F /  0.4 °C 32 °F /  0.0 °C 30.5 in /  1032.4 hPa Calm     97 % 0 in /  0.0 mm
07:22 32.7 °F /  0.4 °C 32 °F /  0.0 °C 30.5 in /  1032.4 hPa Calm     97 % 0 in /  0.0 mm
07:27 32.4 °F /  0.2 °C 31.6 °F /  -0.2 °C 30.5 in /  1032.7 hPa Calm     97 % 0 in /  0.0 mm
07:32 32.4 °F /  0.2 °C 31.6 °F /  -0.2 °C 30.5 in /  1032.7 hPa Calm     97 % 0 in /  0.0 mm
07:37 32.4 °F /  0.2 °C 31.6 °F /  -0.2 °C 30.5 in /  1032.7 hPa Calm     97 % 0 in /  0.0 mm
07:42 32.4 °F /  0.2 °C 31.6 °F /  -0.2 °C 30.5 in /  1032.7 hPa Calm     97 % 0 in /  0.0 mm
07:52 32.4 °F /  0.2 °C 31.6 °F /  -0.2 °C 30.5 in /  1032.7 hPa Calm     97 % 0 in /  0.0 mm
07:57 32.4 °F /  0.2 °C 31.6 °F /  -0.2 °C 30.5 in /  1032.7 hPa Calm     97 % 0 in /  0.0 mm
08:02 32.4 °F /  0.2 °C 31.6 °F /  -0.2 °C 30.5 in /  1032.7 hPa Calm     97 % 0 in /  0.0 mm
08:12 32.4 °F /  0.2 °C 31.6 °F /  -0.2 °C 30.5 in /  1032.7 hPa Calm     97 % 0 in /  0.0 mm
08:17 32.4 °F /  0.2 °C 31.6 °F /  -0.2 °C 30.5 in /  1032.7 hPa Calm     97 % 0 in /  0.0 mm
08:22 32.4 °F /  0.2 °C 31.6 °F /  -0.2 °C 30.5 in /  1032.7 hPa Calm     97 % 0 in /  0.0 mm
08:27 32.4 °F /  0.2 °C 31.6 °F /  -0.2 °C 30.5 in /  1033.1 hPa Calm     97 % 0 in /  0.0 mm
08:32 32.4 °F /  0.2 °C 31.6 °F /  -0.2 °C 30.5 in /  1032.7 hPa Calm   3 mph /  4.8 km/h 97 % 0 in /  0.0 mm
08:37 32.4 °F /  0.2 °C 31.6 °F /  -0.2 °C 30.5 in /  1033.1 hPa Calm   3 mph /  4.8 km/h 97 % 0 in /  0.0 mm
08:42 32.4 °F /  0.2 °C 31.6 °F /  -0.2 °C 30.5 in /  1033.1 hPa Calm   1 mph /  1.6 km/h 97 % 0 in /  0.0 mm
08:47 32.4 °F /  0.2 °C 31.6 °F /  -0.2 °C 30.5 in /  1033.1 hPa Calm   1 mph /  1.6 km/h 97 % 0 in /  0.0 mm
08:52 32.4 °F /  0.2 °C 31.6 °F /  -0.2 °C 30.5 in /  1033.1 hPa Calm     97 % 0 in /  0.0 mm
08:57 32.4 °F /  0.2 °C 31.6 °F /  -0.2 °C 30.5 in /  1033.4 hPa Calm     97 % 0 in /  0.0 mm
09:02 32.4 °F /  0.2 °C 31.6 °F /  -0.2 °C 30.5 in /  1033.4 hPa Calm     97 % 0 in /  0.0 mm
09:07 32.4 °F /  0.2 °C 31.6 °F /  -0.2 °C 30.5 in /  1033.4 hPa Calm     97 % 0 in /  0.0 mm
09:12 32.4 °F /  0.2 °C 31.6 °F /  -0.2 °C 30.5 in /  1033.4 hPa Calm     97 % 0 in /  0.0 mm
09:17 32.4 °F /  0.2 °C 31.6 °F /  -0.2 °C 30.5 in /  1033.4 hPa Calm     97 % 0 in /  0.0 mm
09:22 32.4 °F /  0.2 °C 31.6 °F /  -0.2 °C 30.5 in /  1033.4 hPa Calm     97 % 0 in /  0.0 mm
09:27 32.4 °F /  0.2 °C 31.6 °F /  -0.2 °C 30.5 in /  1033.4 hPa Calm     97 % 0 in /  0.0 mm
09:32 32.5 °F /  0.3 °C 31.8 °F /  -0.1 °C 30.5 in /  1033.7 hPa Calm     97 % 0 in /  0.0 mm
09:37 32.5 °F /  0.3 °C 31.8 °F /  -0.1 °C 30.5 in /  1033.7 hPa Calm     97 % 0 in /  0.0 mm
09:47 32.5 °F /  0.3 °C 31.8 °F /  -0.1 °C 30.5 in /  1033.7 hPa Calm     97 % 0 in /  0.0 mm
09:52 32.7 °F /  0.4 °C 32 °F /  0.0 °C 30.5 in /  1033.7 hPa Calm     97 % 0 in /  0.0 mm
09:57 32.7 °F /  0.4 °C 32.2 °F /  0.1 °C 30.5 in /  1033.7 hPa Calm     98 % 0 in /  0.0 mm
10:02 32.7 °F /  0.4 °C 32.2 °F /  0.1 °C 30.5 in /  1033.7 hPa Calm     98 % 0 in /  0.0 mm
10:07 32.7 °F /  0.4 °C 32.2 °F /  0.1 °C 30.5 in /  1033.7 hPa Calm     98 % 0 in /  0.0 mm
10:12 32.7 °F /  0.4 °C 32.2 °F /  0.1 °C 30.5 in /  1033.7 hPa Calm     98 % 0 in /  0.0 mm
10:17 32.9 °F /  0.5 °C 32.2 °F /  0.1 °C 30.5 in /  1033.7 hPa Calm     97 % 0 in /  0.0 mm
10:22 32.9 °F /  0.5 °C 32.4 °F /  0.2 °C 30.5 in /  1033.7 hPa Calm     98 % 0 in /  0.0 mm
10:27 32.9 °F /  0.5 °C 32.2 °F /  0.1 °C 30.5 in /  1033.7 hPa Calm     97 % 0 in /  0.0 mm
10:37 33.1 °F /  0.6 °C 32.5 °F /  0.3 °C 30.5 in /  1033.7 hPa Calm     98 % 0 in /  0.0 mm
10:42 33.3 °F /  0.7 °C 32.7 °F /  0.4 °C 30.5 in /  1033.7 hPa Calm     98 % 0 in /  0.0 mm
10:52 33.3 °F /  0.7 °C 32.7 °F /  0.4 °C 30.5 in /  1033.7 hPa Calm     98 % 0 in /  0.0 mm
10:57 33.3 °F /  0.7 °C 32.7 °F /  0.4 °C 30.5 in /  1033.7 hPa Calm     98 % 0 in /  0.0 mm
11:02 33.3 °F /  0.7 °C 32.5 °F /  0.3 °C 30.5 in /  1033.7 hPa Calm     97 % 0 in /  0.0 mm
11:07 33.3 °F /  0.7 °C 32.5 °F /  0.3 °C 30.5 in /  1033.7 hPa Calm     97 % 0 in /  0.0 mm
11:17 33.4 °F /  0.8 °C 32.7 °F /  0.4 °C 30.5 in /  1033.7 hPa Calm     97 % 0 in /  0.0 mm
11:22 33.4 °F /  0.8 °C 32.7 °F /  0.4 °C 30.5 in /  1034.1 hPa Calm     97 % 0 in /  0.0 mm
11:32 33.6 °F /  0.9 °C 33.1 °F /  0.6 °C 30.5 in /  1033.7 hPa Calm     98 % 0 in /  0.0 mm
11:37 33.8 °F /  1.0 °C 33.3 °F /  0.7 °C 30.5 in /  1033.7 hPa Calm     98 % 0 in /  0.0 mm
11:42 34 °F /  1.1 °C 33.4 °F /  0.8 °C 30.5 in /  1033.7 hPa Calm     98 % 0 in /  0.0 mm
11:52 34.3 °F /  1.3 °C 33.8 °F /  1.0 °C 30.5 in /  1033.7 hPa Calm     98 % 0 in /  0.0 mm
11:57 34.5 °F /  1.4 °C 34 °F /  1.1 °C 30.5 in /  1033.7 hPa Calm     98 % 0 in /  0.0 mm
12:07 35.4 °F /  1.9 °C 34.9 °F /  1.6 °C 30.5 in /  1033.7 hPa Calm     98 % 0 in /  0.0 mm
12:12 36 °F /  2.2 °C 35.4 °F /  1.9 °C 30.5 in /  1033.7 hPa Calm   1 mph /  1.6 km/h 98 % 0 in /  0.0 mm
12:22 36.9 °F /  2.7 °C 36.3 °F /  2.4 °C 30.5 in /  1033.4 hPa WNW 2 mph /  3.2 km/h 4 mph /  6.4 km/h 98 % 0 in /  0.0 mm
12:32 37.6 °F /  3.1 °C 37 °F /  2.8 °C 30.5 in /  1033.7 hPa NNW 1 mph /  1.6 km/h 4 mph /  6.4 km/h 98 % 0 in /  0.0 mm
12:42 37.6 °F /  3.1 °C 37 °F /  2.8 °C 30.5 in /  1033.4 hPa WNW 2 mph /  3.2 km/h 5 mph /  8.0 km/h 98 % 0 in /  0.0 mm
12:47 37.8 °F /  3.2 °C 37.2 °F /  2.9 °C 30.5 in /  1033.4 hPa Calm   5 mph /  8.0 km/h 98 % 0 in /  0.0 mm
12:52 37.8 °F /  3.2 °C 37.2 °F /  2.9 °C 30.5 in /  1033.4 hPa Calm   4 mph /  6.4 km/h 98 % 0 in /  0.0 mm
12:57 37.8 °F /  3.2 °C 37.2 °F /  2.9 °C 30.5 in /  1033.4 hPa Calm   4 mph /  6.4 km/h 98 % 0 in /  0.0 mm
13:02 38.1 °F /  3.4 °C 37.6 °F /  3.1 °C 30.5 in /  1033.4 hPa Calm   4 mph /  6.4 km/h 98 % 0 in /  0.0 mm
13:07 38.5 °F /  3.6 °C 37.9 °F /  3.3 °C 30.5 in /  1033.4 hPa Calm   2 mph /  3.2 km/h 98 % 0 in /  0.0 mm
13:17 38.3 °F /  3.5 °C 37.6 °F /  3.1 °C 30.5 in /  1033.1 hPa SSW 1 mph /  1.6 km/h 1 mph /  1.6 km/h 97 % 0 in /  0.0 mm
13:22 38.5 °F /  3.6 °C 37.8 °F /  3.2 °C 30.5 in /  1033.1 hPa SSW 1 mph /  1.6 km/h 3 mph /  4.8 km/h 97 % 0 in /  0.0 mm
13:27 38.5 °F /  3.6 °C 37.8 °F /  3.2 °C 30.5 in /  1033.1 hPa WSW 1 mph /  1.6 km/h 3 mph /  4.8 km/h 97 % 0 in /  0.0 mm
13:32 38.5 °F /  3.6 °C 37.8 °F /  3.2 °C 30.5 in /  1033.1 hPa West 1 mph /  1.6 km/h 2 mph /  3.2 km/h 97 % 0.01 in /  0.3 mm
13:42 38.8 °F /  3.8 °C 37.8 °F /  3.2 °C 30.5 in /  1032.7 hPa WNW 1 mph /  1.6 km/h 2 mph /  3.2 km/h 96 % 0.01 in /  0.3 mm
13:52 39.4 °F /  4.1 °C 38.3 °F /  3.5 °C 30.5 in /  1033.1 hPa Calm   3 mph /  4.8 km/h 96 % 0.01 in /  0.3 mm
13:57 39.6 °F /  4.2 °C 38.5 °F /  3.6 °C 30.5 in /  1033.1 hPa Calm   2 mph /  3.2 km/h 96 % 0.01 in /  0.3 mm
14:07 39.9 °F /  4.4 °C 38.7 °F /  3.7 °C 30.5 in /  1033.1 hPa Calm   1 mph /  1.6 km/h 95 % 0.01 in /  0.3 mm
14:12 39.7 °F /  4.3 °C 38.5 °F /  3.6 °C 30.5 in /  1033.1 hPa Calm   1 mph /  1.6 km/h 95 % 0.01 in /  0.3 mm
14:17 39.9 °F /  4.4 °C 38.7 °F /  3.7 °C 30.5 in /  1033.1 hPa East 1 mph /  1.6 km/h 1 mph /  1.6 km/h 95 % 0.01 in /  0.3 mm
15:27 39.7 °F /  4.3 °C 38.5 °F /  3.6 °C 30.5 in /  1033.1 hPa SW 1 mph /  1.6 km/h 2 mph /  3.2 km/h 95 % 0 in /  0.0 mm
15:37 39.6 °F /  4.2 °C 38.3 °F /  3.5 °C 30.5 in /  1033.1 hPa SSW 1 mph /  1.6 km/h 2 mph /  3.2 km/h 95 % 0 in /  0.0 mm
15:47 39.4 °F /  4.1 °C 38.1 °F /  3.4 °C 30.5 in /  1033.1 hPa Calm   2 mph /  3.2 km/h 95 % 0 in /  0.0 mm
15:57 39 °F /  3.9 °C 37.9 °F /  3.3 °C 30.5 in /  1033.1 hPa Calm   1 mph /  1.6 km/h 96 % 0 in /  0.0 mm
16:02 39 °F /  3.9 °C 37.9 °F /  3.3 °C 30.5 in /  1033.4 hPa Calm     96 % 0 in /  0.0 mm
16:12 39 °F /  3.9 °C 37.9 °F /  3.3 °C 30.5 in /  1033.1 hPa Calm     96 % 0 in /  0.0 mm
16:17 38.8 °F /  3.8 °C 37.8 °F /  3.2 °C 30.5 in /  1033.1 hPa Calm     96 % 0 in /  0.0 mm
16:22 38.8 °F /  3.8 °C 37.8 °F /  3.2 °C 30.5 in /  1033.4 hPa Calm     96 % 0 in /  0.0 mm
16:27 38.8 °F /  3.8 °C 37.8 °F /  3.2 °C 30.5 in /  1033.1 hPa Calm     96 % 0 in /  0.0 mm
16:32 38.7 °F /  3.7 °C 37.6 °F /  3.1 °C 30.5 in /  1033.1 hPa Calm     96 % 0 in /  0.0 mm
16:42 38.7 °F /  3.7 °C 37.6 °F /  3.1 °C 30.5 in /  1033.1 hPa Calm     96 % 0 in /  0.0 mm
16:52 38.7 °F /  3.7 °C 37.6 °F /  3.1 °C 30.5 in /  1033.1 hPa Calm     96 % 0 in /  0.0 mm
17:07 38.5 °F /  3.6 °C 37.8 °F /  3.2 °C 30.5 in /  1033.4 hPa Calm     97 % 0 in /  0.0 mm
17:22 37.9 °F /  3.3 °C 36.9 °F /  2.7 °C 30.5 in /  1033.4 hPa East 1 mph /  1.6 km/h 2 mph /  3.2 km/h 96 % 0 in /  0.0 mm
17:32 37.8 °F /  3.2 °C 37 °F /  2.8 °C 30.5 in /  1033.4 hPa Calm   2 mph /  3.2 km/h 97 % 0 in /  0.0 mm
17:37 37.6 °F /  3.1 °C 36.9 °F /  2.7 °C 30.5 in /  1033.4 hPa Calm   2 mph /  3.2 km/h 97 % 0 in /  0.0 mm
17:42 37.6 °F /  3.1 °C 36.9 °F /  2.7 °C 30.5 in /  1033.4 hPa Calm   1 mph /  1.6 km/h 97 % 0 in /  0.0 mm
17:47 37.6 °F /  3.1 °C 36.9 °F /  2.7 °C 30.5 in /  1033.4 hPa Calm     97 % 0 in /  0.0 mm
17:52 37.6 °F /  3.1 °C 36.9 °F /  2.7 °C 30.5 in /  1033.4 hPa Calm     97 % 0 in /  0.0 mm
17:57 37.4 °F /  3.0 °C 36.7 °F /  2.6 °C 30.5 in /  1033.4 hPa Calm     97 % 0 in /  0.0 mm
18:02 37.4 °F /  3.0 °C 36.7 °F /  2.6 °C 30.5 in /  1033.4 hPa Calm     97 % 0 in /  0.0 mm
18:12 37.2 °F /  2.9 °C 36.5 °F /  2.5 °C 30.5 in /  1033.7 hPa Calm     97 % 0 in /  0.0 mm
18:17 37 °F /  2.8 °C 36.3 °F /  2.4 °C 30.5 in /  1033.7 hPa Calm   2 mph /  3.2 km/h 97 % 0 in /  0.0 mm
18:27 36.9 °F /  2.7 °C 36.1 °F /  2.3 °C 30.5 in /  1033.7 hPa Calm     97 % 0 in /  0.0 mm
18:37 37 °F /  2.8 °C 36.3 °F /  2.4 °C 30.5 in /  1033.4 hPa Calm     97 % 0 in /  0.0 mm
18:42 37 °F /  2.8 °C 36.3 °F /  2.4 °C 30.5 in /  1033.4 hPa Calm     97 % 0 in /  0.0 mm
18:52 37 °F /  2.8 °C 36.3 °F /  2.4 °C 30.5 in /  1033.4 hPa Calm     97 % 0 in /  0.0 mm
18:57 37 °F /  2.8 °C 36.3 °F /  2.4 °C 30.5 in /  1033.4 hPa Calm     97 % 0 in /  0.0 mm
19:02 36.9 °F /  2.7 °C 36.1 °F /  2.3 °C 30.5 in /  1033.4 hPa Calm     97 % 0 in /  0.0 mm
19:07 36.7 °F /  2.6 °C 36 °F /  2.2 °C 30.5 in /  1033.4 hPa Calm     97 % 0 in /  0.0 mm
19:17 36.9 °F /  2.7 °C 36.1 °F /  2.3 °C 30.5 in /  1033.4 hPa Calm     97 % 0 in /  0.0 mm
19:22 36.9 °F /  2.7 °C 36.1 °F /  2.3 °C 30.5 in /  1033.4 hPa Calm     97 % 0 in /  0.0 mm
19:27 36.7 °F /  2.6 °C 36 °F /  2.2 °C 30.5 in /  1033.4 hPa Calm     97 % 0 in /  0.0 mm
19:37 36.7 °F /  2.6 °C 36 °F /  2.2 °C 30.5 in /  1033.4 hPa Calm     97 % 0 in /  0.0 mm
19:42 36.7 °F /  2.6 °C 36 °F /  2.2 °C 30.5 in /  1033.4 hPa Calm     97 % 0 in /  0.0 mm
19:47 36.7 °F /  2.6 °C 36 °F /  2.2 °C 30.5 in /  1033.4 hPa Calm     97 % 0 in /  0.0 mm
19:52 36.7 °F /  2.6 °C 36 °F /  2.2 °C 30.5 in /  1033.4 hPa Calm     97 % 0 in /  0.0 mm
20:02 36.5 °F /  2.5 °C 35.8 °F /  2.1 °C 30.5 in /  1033.4 hPa Calm     97 % 0 in /  0.0 mm
20:07 36.5 °F /  2.5 °C 35.8 °F /  2.1 °C 30.5 in /  1033.1 hPa Calm     97 % 0 in /  0.0 mm
20:17 36.3 °F /  2.4 °C 35.6 °F /  2.0 °C 30.5 in /  1033.1 hPa Calm     97 % 0 in /  0.0 mm
20:27 36.3 °F /  2.4 °C 35.6 °F /  2.0 °C 30.5 in /  1033.1 hPa Calm     97 % 0 in /  0.0 mm
20:32 36.3 °F /  2.4 °C 35.8 °F /  2.1 °C 30.5 in /  1033.1 hPa Calm     98 % 0 in /  0.0 mm
20:37 36.1 °F /  2.3 °C 35.6 °F /  2.0 °C 30.5 in /  1033.1 hPa Calm     98 % 0 in /  0.0 mm
20:42 36.1 °F /  2.3 °C 35.6 °F /  2.0 °C 30.5 in /  1033.1 hPa Calm     98 % 0 in /  0.0 mm
20:47 36.1 °F /  2.3 °C 35.6 °F /  2.0 °C 30.5 in /  1033.4 hPa Calm     98 % 0 in /  0.0 mm
20:52 36 °F /  2.2 °C 35.2 °F /  1.8 °C 30.5 in /  1033.4 hPa Calm     97 % 0 in /  0.0 mm
20:57 36 °F /  2.2 °C 35.2 °F /  1.8 °C 30.5 in /  1033.1 hPa Calm     97 % 0 in /  0.0 mm
21:02 35.8 °F /  2.1 °C 35.1 °F /  1.7 °C 30.5 in /  1033.4 hPa Calm     97 % 0 in /  0.0 mm
21:07 35.8 °F /  2.1 °C 35.1 °F /  1.7 °C 30.5 in /  1033.4 hPa Calm   1 mph /  1.6 km/h 97 % 0 in /  0.0 mm
21:17 36 °F /  2.2 °C 35.4 °F /  1.9 °C 30.5 in /  1033.4 hPa WNW 1 mph /  1.6 km/h 1 mph /  1.6 km/h 98 % 0.01 in /  0.3 mm
21:22 35.8 °F /  2.1 °C 35.2 °F /  1.8 °C 30.5 in /  1033.1 hPa West 1 mph /  1.6 km/h 2 mph /  3.2 km/h 98 % 0.02 in /  0.5 mm
21:27 36 °F /  2.2 °C 35.4 °F /  1.9 °C 30.5 in /  1033.1 hPa Calm   2 mph /  3.2 km/h 98 % 0.02 in /  0.5 mm
21:32 36 °F /  2.2 °C 35.4 °F /  1.9 °C 30.5 in /  1033.1 hPa West 3 mph /  4.8 km/h 3 mph /  4.8 km/h 98 % 0.02 in /  0.5 mm
21:42 35.8 °F /  2.1 °C 35.2 °F /  1.8 °C 30.5 in /  1033.1 hPa Calm   4 mph /  6.4 km/h 98 % 0.02 in /  0.5 mm
21:47 36 °F /  2.2 °C 35.4 °F /  1.9 °C 30.5 in /  1033.1 hPa ESE 2 mph /  3.2 km/h 4 mph /  6.4 km/h 98 % 0.02 in /  0.5 mm
21:52 36 °F /  2.2 °C 35.4 °F /  1.9 °C 30.5 in /  1033.1 hPa Calm   4 mph /  6.4 km/h 98 % 0.02 in /  0.5 mm
21:57 36 °F /  2.2 °C 35.4 °F /  1.9 °C 30.5 in /  1033.1 hPa Calm   4 mph /  6.4 km/h 98 % 0.02 in /  0.5 mm
22:02 36 °F /  2.2 °C 35.4 °F /  1.9 °C 30.5 in /  1033.1 hPa Calm   4 mph /  6.4 km/h 98 % 0.02 in /  0.5 mm
22:07 36 °F /  2.2 °C 35.4 °F /  1.9 °C 30.5 in /  1033.1 hPa Calm   1 mph /  1.6 km/h 98 % 0.02 in /  0.5 mm
22:12 36 °F /  2.2 °C 35.4 °F /  1.9 °C 30.5 in /  1033.1 hPa East 1 mph /  1.6 km/h   98 % 0.01 in /  0.3 mm
22:17 35.8 °F /  2.1 °C 35.2 °F /  1.8 °C 30.5 in /  1033.1 hPa East 1 mph /  1.6 km/h 3 mph /  4.8 km/h 98 % 0 in /  0.0 mm
22:27 35.6 °F /  2.0 °C 35.1 °F /  1.7 °C 30.5 in /  1033.1 hPa Calm   3 mph /  4.8 km/h 98 % 0 in /  0.0 mm
22:32 35.4 °F /  1.9 °C 34.9 °F /  1.6 °C 30.5 in /  1033.1 hPa Calm   1 mph /  1.6 km/h 98 % 0 in /  0.0 mm
22:37 35.4 °F /  1.9 °C 34.9 °F /  1.6 °C 30.5 in /  1033.1 hPa Calm   1 mph /  1.6 km/h 98 % 0 in /  0.0 mm
22:47 35.4 °F /  1.9 °C 34.9 °F /  1.6 °C 30.5 in /  1033.1 hPa Calm     98 % 0 in /  0.0 mm
22:52 35.4 °F /  1.9 °C 34.9 °F /  1.6 °C 30.5 in /  1033.1 hPa Calm   1 mph /  1.6 km/h 98 % 0 in /  0.0 mm
22:57 35.4 °F /  1.9 °C 34.9 °F /  1.6 °C 30.5 in /  1033.4 hPa Calm   1 mph /  1.6 km/h 98 % 0 in /  0.0 mm
23:02 35.4 °F /  1.9 °C 34.9 °F /  1.6 °C 30.5 in /  1033.1 hPa Calm   1 mph /  1.6 km/h 98 % 0 in /  0.0 mm
23:07 35.6 °F /  2.0 °C 35.1 °F /  1.7 °C 30.5 in /  1033.1 hPa Calm   1 mph /  1.6 km/h 98 % 0 in /  0.0 mm
23:12 35.8 °F /  2.1 °C 35.2 °F /  1.8 °C 30.5 in /  1033.1 hPa Calm     98 % 0 in /  0.0 mm
23:22 35.6 °F /  2.0 °C 35.1 °F /  1.7 °C 30.5 in /  1033.1 hPa Calm   1 mph /  1.6 km/h 98 % 0 in /  0.0 mm
23:27 35.4 °F /  1.9 °C 34.9 °F /  1.6 °C 30.5 in /  1033.1 hPa Calm     98 % 0 in /  0.0 mm
23:32 35.6 °F /  2.0 °C 35.1 °F /  1.7 °C 30.5 in /  1033.1 hPa Calm   1 mph /  1.6 km/h 98 % 0 in /  0.0 mm
23:42 35.6 °F /  2.0 °C 35.1 °F /  1.7 °C 30.5 in /  1033.1 hPa Calm   1 mph /  1.6 km/h 98 % 0 in /  0.0 mm
23:47 35.6 °F /  2.0 °C 35.1 °F /  1.7 °C 30.5 in /  1032.7 hPa Calm   1 mph /  1.6 km/h 98 % 0 in /  0.0 mm
23:52 35.8 °F /  2.1 °C 35.2 °F /  1.8 °C 30.5 in /  1032.7 hPa Calm   1 mph /  1.6 km/h 98 % 0 in /  0.0 mm
Meteo18
Compliments of Weather Underground - 4 mb

Script developed by  Jim McMurry - jmcmurry@mwt.net Adapted for the template by  Wim van der Kuil - Leuven-Template.eu

You find our weather info also at:

European Weather Network

Weather Underground

Equipment we use:

Weather-station
Davis Vue

Weather-program
Meteohub

Weather-server
Raspberry PI 2 B+

Provider
1 and 1

Davis Vue

Meteohub

Raspberry PI 2 B+

1 and 1